Arthur, Arkansas
Current Conditions -  °F | °C
As of 1:53 PM on Thursday 23 Oct 2014 (Local Time) from KRUE Reporting Station
Clear Clear  
Wind Chill: 18°   Ceiling: Unl
Heat Index: 18°   Visibility: 10mi
Dew Point:   Wind: 5mph
Humidity: 50%   Direction: 240°WSW
Pressure: 30.17"   Gusts: NA
Location:  35.2722°N, 92.6766°W
Report Text: KRUE 231853Z AUTO 24004KT 10SM CLR 18/08 A3017 RMK AO2 SLP211 T01830078
Loading
Personal Weather Stations






























Interactive Weather Map
Tropical Storm Tracking
New forecast layout! Learn more

10-Day Weather Forecast

Advertisements
Track Severe Weather on mobile